createdAt,value
2023-05-10T00:01:46.287Z,94745.03
2023-05-10T00:04:14.922Z,94746.63
2023-05-10T00:06:43.618Z,94741.91
2023-05-10T00:09:12.041Z,94748.53
2023-05-10T00:11:40.116Z,94741.63
2023-05-10T00:14:08.295Z,94742.19
2023-05-10T00:16:37.980Z,94738.25
2023-05-10T00:19:06.218Z,94732.41
2023-05-10T00:21:34.722Z,94732.16
2023-05-10T00:24:03.133Z,94728.69
2023-05-10T00:26:31.207Z,94732.97
2023-05-10T00:28:59.952Z,94725.53
2023-05-10T00:31:28.018Z,94725.81
2023-05-10T00:33:58.188Z,94725.03
2023-05-10T00:36:26.399Z,94720.81
2023-05-10T00:38:54.668Z,94724.25
2023-05-10T00:41:23.381Z,94730.13
2023-05-10T00:43:51.954Z,94716.88
2023-05-10T00:46:20.803Z,94729.34
2023-05-10T00:48:49.847Z,94729.84
2023-05-10T00:51:20.065Z,94719.03
2023-05-10T00:53:48.977Z,94721.16
2023-05-10T00:56:17.668Z,94727.50
2023-05-10T00:58:46.067Z,94721.44
2023-05-10T01:01:15.538Z,94719.84
2023-05-10T01:03:44.628Z,94724.63
2023-05-10T01:06:12.910Z,94718.28
2023-05-10T01:08:43.166Z,94716.72
2023-05-10T01:11:12.526Z,94716.72
2023-05-10T01:13:44.510Z,94716.44
2023-05-10T01:16:12.846Z,94719.88
2023-05-10T01:18:43.560Z,94718.56
2023-05-10T01:21:23.101Z,94714.56
2023-05-10T01:24:40.318Z,94714.88
2023-05-10T01:27:48.138Z,94715.44
2023-05-10T01:30:47.201Z,94711.44
2023-05-10T01:33:24.199Z,94713.00
2023-05-10T01:36:00.002Z,94711.16
2023-05-10T01:38:41.477Z,94715.66
2023-05-10T01:41:19.628Z,94713.00
2023-05-10T01:43:59.987Z,94720.16
2023-05-10T01:46:36.625Z,94716.72
2023-05-10T01:49:11.881Z,94715.94
2023-05-10T01:51:47.236Z,94705.63
2023-05-10T01:54:21.508Z,94717.78
2023-05-10T01:57:10.086Z,94709.56
2023-05-10T01:59:42.543Z,94719.94
2023-05-10T02:02:14.631Z,94721.25
2023-05-10T02:04:45.840Z,94720.44
2023-05-10T02:07:16.360Z,94710.16
2023-05-10T02:09:48.981Z,94724.44
2023-05-10T02:12:20.221Z,94725.50
2023-05-10T02:14:49.906Z,94722.31
2023-05-10T02:17:19.409Z,94721.53
2023-05-10T02:19:50.344Z,94726.81
2023-05-10T02:22:20.542Z,94718.09
2023-05-10T02:24:51.677Z,94725.53
2023-05-10T02:27:22.895Z,94725.25
2023-05-10T02:29:53.478Z,94727.63
2023-05-10T02:32:23.711Z,94723.13
2023-05-10T02:34:55.424Z,94722.88
2023-05-10T02:37:24.912Z,94726.31
2023-05-10T02:39:56.580Z,94728.97
2023-05-10T02:42:28.621Z,94722.09
2023-05-10T02:45:01.958Z,94723.94
2023-05-10T02:47:31.432Z,94718.94
2023-05-10T02:50:01.847Z,94722.63
2023-05-10T02:52:41.246Z,94722.38
2023-05-10T02:55:13.818Z,94720.75
2023-05-10T02:57:51.526Z,94722.09
2023-05-10T03:00:20.289Z,94723.94
2023-05-10T03:02:48.458Z,94729.25
2023-05-10T03:05:18.404Z,94729.75
2023-05-10T03:07:47.719Z,94728.41
2023-05-10T03:10:16.197Z,94729.22
2023-05-10T03:13:04.780Z,94733.97
2023-05-10T03:15:44.758Z,94733.94
2023-05-10T03:18:18.202Z,94735.03
2023-05-10T03:20:51.121Z,94736.84
2023-05-10T03:23:29.035Z,94738.47
2023-05-10T03:25:57.814Z,94736.06
2023-05-10T03:28:28.928Z,94746.13
2023-05-10T03:31:01.836Z,94741.38
2023-05-10T03:33:31.778Z,94740.31
2023-05-10T03:36:01.424Z,94740.06
2023-05-10T03:38:30.559Z,94744.31
2023-05-10T03:40:58.686Z,94743.53
2023-05-10T03:43:26.681Z,94745.91
2023-05-10T03:45:55.035Z,94747.47
2023-05-10T03:48:23.022Z,94748.78
2023-05-10T03:50:51.280Z,94748.25
2023-05-10T03:53:21.143Z,94752.78
2023-05-10T03:55:50.308Z,94758.84
2023-05-10T03:58:19.123Z,94763.06
2023-05-10T04:00:47.403Z,94764.13
2023-05-10T04:03:16.572Z,94761.22
2023-05-10T04:05:44.774Z,94763.88
2023-05-10T04:08:16.005Z,94765.50
2023-05-10T04:10:45.465Z,94755.97
2023-05-10T04:13:13.397Z,94757.28
2023-05-10T04:15:41.281Z,94762.00
2023-05-10T04:18:09.175Z,94762.78
2023-05-10T04:20:37.105Z,94769.59
2023-05-10T04:23:05.054Z,94766.34
2023-05-10T04:25:36.040Z,94769.78
2023-05-10T04:28:05.652Z,94770.28
2023-05-10T04:30:33.612Z,94775.28
2023-05-10T04:33:02.783Z,94774.38
2023-05-10T04:35:31.468Z,94775.44
2023-05-10T04:37:59.416Z,94777.59
2023-05-10T04:40:28.157Z,94785.31
2023-05-10T04:42:56.664Z,94777.44
2023-05-10T04:45:26.220Z,94785.44
2023-05-10T04:47:54.516Z,94782.78
2023-05-10T04:50:22.668Z,94791.00
2023-05-10T04:52:51.119Z,94790.22
2023-05-10T04:55:21.473Z,94805.06
2023-05-10T04:57:53.260Z,94805.63
2023-05-10T05:00:22.685Z,94807.22
2023-05-10T05:02:52.695Z,94809.38
2023-05-10T05:05:20.797Z,94811.78
2023-05-10T05:07:49.540Z,94816.78
2023-05-10T05:10:18.019Z,94827.09
2023-05-10T05:12:46.433Z,94824.38
2023-05-10T05:15:14.528Z,94829.16
2023-05-10T05:17:42.770Z,94831.31
2023-05-10T05:20:14.123Z,94832.94
2023-05-10T05:22:42.371Z,94837.41
2023-05-10T05:25:12.512Z,94834.25
2023-05-10T05:27:40.565Z,94845.63
2023-05-10T05:30:09.803Z,94839.25
2023-05-10T05:32:38.293Z,94846.34
2023-05-10T05:35:07.291Z,94841.56
2023-05-10T05:37:38.279Z,94842.13
2023-05-10T05:40:07.706Z,94851.41
2023-05-10T05:42:35.736Z,94852.72
2023-05-10T05:45:03.705Z,94850.59
2023-05-10T05:47:32.888Z,94840.28
2023-05-10T05:50:01.091Z,94846.41
2023-05-10T05:52:29.541Z,94855.44
2023-05-10T05:54:58.892Z,94857.84
2023-05-10T05:57:28.397Z,94856.78
2023-05-10T05:59:56.569Z,94854.41
2023-05-10T06:02:24.966Z,94862.59
2023-05-10T06:04:53.467Z,94859.16
2023-05-10T06:07:23.363Z,94858.09
2023-05-10T06:09:51.427Z,94868.16
2023-05-10T06:12:21.055Z,94869.22
2023-05-10T06:14:50.186Z,94872.41
2023-05-10T06:17:18.529Z,94873.69
2023-05-10T06:19:46.708Z,94880.53
2023-05-10T06:22:14.984Z,94887.09
2023-05-10T06:24:43.038Z,94886.00
2023-05-10T06:27:12.261Z,94889.94
2023-05-10T06:29:41.726Z,94891.75
2023-05-10T06:32:10.330Z,94897.50
2023-05-10T06:34:38.545Z,94897.16
2023-05-10T06:37:07.403Z,94896.78
2023-05-10T06:39:35.484Z,94898.25
2023-05-10T06:42:03.827Z,94908.25
2023-05-10T06:44:34.265Z,94899.19
2023-05-10T06:47:04.080Z,94904.06
2023-05-10T06:49:32.025Z,94902.44
2023-05-10T06:52:00.161Z,94900.94
2023-05-10T06:54:28.107Z,94905.03
2023-05-10T06:56:56.419Z,94909.19
2023-05-10T06:59:25.767Z,94913.28
2023-05-10T07:01:54.957Z,94918.03
2023-05-10T07:04:24.541Z,94915.00
2023-05-10T07:07:00.285Z,94920.66
2023-05-10T07:09:28.276Z,94924.53
2023-05-10T07:11:57.580Z,94917.22
2023-05-10T07:14:25.778Z,94927.06
2023-05-10T07:16:54.137Z,94918.91
2023-05-10T07:19:22.612Z,94926.25
2023-05-10T07:21:52.423Z,94924.28
2023-05-10T07:24:20.495Z,94935.66
2023-05-10T07:26:48.531Z,94926.59
2023-05-10T07:29:16.577Z,94929.41
2023-05-10T07:31:44.751Z,94926.75
2023-05-10T07:34:12.944Z,94928.97
2023-05-10T07:36:40.957Z,94933.56
2023-05-10T07:39:11.496Z,94927.44
2023-05-10T07:41:40.957Z,94932.41
2023-05-10T07:44:09.191Z,94927.75
2023-05-10T07:46:37.378Z,94932.50
2023-05-10T07:49:06.488Z,94935.22
2023-05-10T07:51:53.965Z,94928.97
2023-05-10T07:54:23.742Z,94928.13
2023-05-10T07:56:53.053Z,94934.94
2023-05-10T07:59:21.453Z,94925.25
2023-05-10T08:01:49.402Z,94935.47
2023-05-10T08:04:17.349Z,94931.94
2023-05-10T08:06:45.698Z,94932.66
2023-05-10T08:09:14.298Z,94923.22
2023-05-10T08:11:43.679Z,94925.72
2023-05-10T08:14:11.779Z,94926.16
2023-05-10T08:16:39.837Z,94927.53
2023-05-10T08:19:08.036Z,94930.34
2023-05-10T08:21:36.832Z,94926.50
2023-05-10T08:24:05.249Z,94932.97
2023-05-10T08:26:35.595Z,94927.06
2023-05-10T08:29:05.068Z,94936.38
2023-05-10T08:31:33.332Z,94937.44
2023-05-10T08:34:01.521Z,94931.16
2023-05-10T08:36:30.954Z,94936.19
2023-05-10T08:38:59.071Z,94937.09
2023-05-10T08:41:36.570Z,94938.25
2023-05-10T08:44:07.149Z,94930.56
2023-05-10T08:46:39.782Z,94935.13
2023-05-10T08:49:09.733Z,94932.84
2023-05-10T08:51:43.815Z,94933.25
2023-05-10T08:54:13.757Z,94937.69
2023-05-10T08:56:41.841Z,94941.84
2023-05-10T08:59:12.530Z,94941.19
2023-05-10T09:01:45.355Z,94939.84
2023-05-10T09:04:14.033Z,94934.22
2023-05-10T09:06:42.139Z,94937.63
2023-05-10T09:09:10.265Z,94947.25
2023-05-10T09:11:38.965Z,94944.66
2023-05-10T09:14:07.591Z,94943.25
2023-05-10T09:16:37.246Z,94948.34
2023-05-10T09:19:05.729Z,94941.13
2023-05-10T09:21:33.984Z,94949.69
2023-05-10T09:24:05.487Z,94948.72
2023-05-10T09:26:34.346Z,94943.25
2023-05-10T09:29:03.664Z,94949.34
2023-05-10T09:31:52.151Z,94945.19
2023-05-10T09:34:22.193Z,94954.38
2023-05-10T09:36:58.658Z,94946.44
2023-05-10T09:39:33.983Z,94945.00
2023-05-10T09:42:05.751Z,94941.06
2023-05-10T09:44:34.504Z,94935.03
2023-05-10T09:47:04.688Z,94940.41
2023-05-10T09:49:34.362Z,94934.56
2023-05-10T09:52:04.521Z,94939.44
2023-05-10T09:54:33.187Z,94937.16
2023-05-10T09:57:01.637Z,94934.22
2023-05-10T09:59:31.541Z,94941.06
2023-05-10T10:02:01.890Z,94931.91
2023-05-10T10:04:31.705Z,94937.97
2023-05-10T10:07:06.197Z,94940.13
2023-05-10T10:09:36.177Z,94931.44
2023-05-10T10:12:05.825Z,94935.31
2023-05-10T10:14:35.161Z,94919.53
2023-05-10T10:19:37.651Z,94924.88
2023-05-10T10:22:06.857Z,94926.63
2023-05-10T10:24:36.490Z,94937.16
2023-05-10T10:27:24.058Z,94926.44
2023-05-10T10:30:06.895Z,94930.88
2023-05-10T10:32:53.738Z,94923.75
2023-05-10T10:35:23.761Z,94929.41
2023-05-10T10:37:53.258Z,94926.88
2023-05-10T10:40:29.015Z,94923.66
2023-05-10T10:42:58.621Z,94922.56
2023-05-10T10:45:28.493Z,94922.56
2023-05-10T10:48:23.927Z,94916.53
2023-05-10T10:50:59.777Z,94917.34
2023-05-10T10:53:29.552Z,94916.84
2023-05-10T10:56:08.966Z,94917.25
2023-05-10T10:58:38.767Z,94912.22
2023-05-10T11:01:15.050Z,94917.13
2023-05-10T11:04:17.259Z,94915.94
2023-05-10T11:06:46.608Z,94924.56
2023-05-10T11:09:15.524Z,94931.06
2023-05-10T11:11:56.129Z,94929.69
2023-05-10T11:14:24.620Z,94942.31
2023-05-10T11:16:53.973Z,94951.31
2023-05-10T11:19:22.084Z,94956.16
2023-05-10T11:21:55.122Z,94958.34
2023-05-10T11:24:29.139Z,94960.84
2023-05-10T11:26:58.171Z,94951.53
2023-05-10T11:29:27.812Z,94964.94
2023-05-10T11:32:00.432Z,94961.25
2023-05-10T11:34:31.268Z,94969.16
2023-05-10T11:37:01.214Z,94973.38
2023-05-10T11:39:31.137Z,94978.66
2023-05-10T11:42:00.184Z,94974.81
2023-05-10T11:44:33.182Z,94979.97
2023-05-10T11:47:02.323Z,94984.25
2023-05-10T11:49:30.625Z,94985.41
2023-05-10T11:52:08.284Z,94985.97
2023-05-10T11:54:36.982Z,94994.50
2023-05-10T11:57:05.287Z,94988.72
2023-05-10T11:59:34.325Z,94983.19
2023-05-10T12:02:03.110Z,94988.22
2023-05-10T12:04:32.155Z,94987.16
2023-05-10T12:07:00.417Z,94993.81
2023-05-10T12:09:42.476Z,94991.66
2023-05-10T12:12:12.681Z,94999.63
2023-05-10T12:14:40.698Z,94997.75
2023-05-10T12:17:13.300Z,94998.56
2023-05-10T12:19:42.110Z,94999.38
2023-05-10T12:22:10.431Z,94999.09
2023-05-10T12:24:40.505Z,94993.53
2023-05-10T12:27:13.473Z,94999.88
2023-05-10T12:29:45.383Z,95013.13
2023-05-10T12:32:13.692Z,95007.31
2023-05-10T12:34:41.784Z,95003.59
2023-05-10T12:37:09.685Z,95009.72
2023-05-10T12:39:47.182Z,95018.19
2023-05-10T12:42:15.131Z,95022.66
2023-05-10T12:44:43.302Z,95022.16
2023-05-10T12:47:11.706Z,95020.81
2023-05-10T12:49:40.178Z,95021.31
2023-05-10T12:52:08.177Z,95021.34
2023-05-10T12:54:36.526Z,95013.41
2023-05-10T12:57:06.425Z,95016.84
2023-05-10T12:59:35.919Z,95020.00
2023-05-10T13:02:05.441Z,95021.59
2023-05-10T13:04:33.955Z,95027.97
2023-05-10T13:07:02.044Z,95030.09
2023-05-10T13:09:30.534Z,95030.59
2023-05-10T13:11:58.780Z,95034.88
2023-05-10T13:14:28.855Z,95031.16
2023-05-10T13:16:57.965Z,95027.97
2023-05-10T13:19:26.352Z,95023.22
2023-05-10T13:21:54.505Z,95032.72
2023-05-10T13:24:23.982Z,95036.72
2023-05-10T13:26:52.440Z,95032.75
2023-05-10T13:29:22.013Z,95032.47
2023-05-10T13:31:51.962Z,95037.50
2023-05-10T13:34:21.457Z,95033.00
2023-05-10T13:36:50.606Z,95030.88
2023-05-10T13:39:19.386Z,95036.44
2023-05-10T13:41:47.569Z,95037.50
2023-05-10T13:44:17.322Z,95036.97
2023-05-10T13:46:45.711Z,95034.03
2023-05-10T13:49:15.221Z,95040.66
2023-05-10T13:51:43.686Z,95035.91
2023-05-10T13:54:13.559Z,95039.88
2023-05-10T13:56:42.100Z,95037.44
2023-05-10T13:59:10.225Z,95033.50
2023-05-10T14:01:39.286Z,95036.94
2023-05-10T14:04:07.334Z,95030.03
2023-05-10T14:06:37.329Z,95031.88
2023-05-10T14:09:08.494Z,95032.66
2023-05-10T14:11:40.152Z,95024.19
2023-05-10T14:14:08.648Z,95028.97
2023-05-10T14:16:36.962Z,95029.97
2023-05-10T14:19:08.123Z,95024.19
2023-05-10T14:21:37.614Z,95024.50
2023-05-10T14:24:07.955Z,95029.53
2023-05-10T14:26:36.158Z,95044.41
2023-05-10T14:29:04.245Z,95041.75
2023-05-10T14:31:32.315Z,95040.69
2023-05-10T14:34:00.635Z,95043.31
2023-05-10T14:36:30.732Z,95049.44
2023-05-10T14:39:00.584Z,95043.34
2023-05-10T14:41:28.585Z,95041.09
2023-05-10T14:43:56.660Z,95040.63
2023-05-10T14:46:25.050Z,95044.81
2023-05-10T14:48:53.617Z,95038.84
2023-05-10T14:51:22.765Z,95039.97
2023-05-10T14:53:51.481Z,95034.25
2023-05-10T14:56:27.134Z,95042.78
2023-05-10T14:58:55.148Z,95044.66
2023-05-10T15:01:23.688Z,95035.97
2023-05-10T15:03:52.809Z,95036.25
2023-05-10T15:06:27.016Z,95042.66
2023-05-10T15:08:55.147Z,95041.88
2023-05-10T15:11:28.266Z,95042.91
2023-05-10T15:13:56.553Z,95046.38
2023-05-10T15:16:25.325Z,95041.66
2023-05-10T15:18:53.483Z,95050.63
2023-05-10T15:21:22.507Z,95043.19
2023-05-10T15:23:50.535Z,95045.59
2023-05-10T15:26:18.706Z,95043.47
2023-05-10T15:28:48.200Z,95050.34
2023-05-10T15:31:16.982Z,95052.22
2023-05-10T15:33:44.981Z,95052.47
2023-05-10T15:36:13.634Z,95053.03
2023-05-10T15:38:42.112Z,95064.13
2023-05-10T15:41:10.117Z,95055.03
2023-05-10T15:43:38.025Z,95063.78
2023-05-10T15:46:08.136Z,95066.97
2023-05-10T15:48:36.523Z,95069.59
2023-05-10T15:51:04.890Z,95065.88
2023-05-10T15:53:32.929Z,95071.28
2023-05-10T15:56:00.854Z,95079.84
2023-05-10T15:58:28.919Z,95076.16
2023-05-10T16:00:57.816Z,95079.63
2023-05-10T16:03:27.515Z,95080.66
2023-05-10T16:05:55.741Z,95080.66
2023-05-10T16:08:23.818Z,95078.53
2023-05-10T16:10:53.732Z,95083.00
2023-05-10T16:13:21.902Z,95083.00
2023-05-10T16:15:49.974Z,95082.72
2023-05-10T16:18:18.318Z,95086.41
2023-05-10T16:20:48.571Z,95089.78
2023-05-10T16:23:16.814Z,95086.09
2023-05-10T16:25:45.482Z,95088.69
2023-05-10T16:28:13.893Z,95086.81
2023-05-10T16:30:42.340Z,95087.56
2023-05-10T16:33:10.636Z,95093.88
2023-05-10T16:35:39.107Z,95087.28
2023-05-10T16:38:08.829Z,95089.63
2023-05-10T16:40:37.091Z,95090.69
2023-05-10T16:43:05.190Z,95093.91
2023-05-10T16:45:33.365Z,95105.03
2023-05-10T16:48:01.696Z,95106.88
2023-05-10T16:50:29.718Z,95108.44
2023-05-10T16:52:57.907Z,95119.47
2023-05-10T16:55:27.593Z,95118.09
2023-05-10T16:57:59.678Z,95119.94
2023-05-10T17:00:27.894Z,95120.38
2023-05-10T17:02:56.394Z,95122.50
2023-05-10T17:05:24.851Z,95124.31
2023-05-10T17:07:53.144Z,95122.94
2023-05-10T17:10:23.431Z,95127.38
2023-05-10T17:12:53.873Z,95134.94
2023-05-10T17:15:22.220Z,95139.91
2023-05-10T17:17:50.243Z,95134.59
2023-05-10T17:20:18.573Z,95140.06
2023-05-10T17:22:46.652Z,95141.34
2023-05-10T17:25:15.321Z,95145.22
2023-05-10T17:27:43.563Z,95149.97
2023-05-10T17:30:15.593Z,95148.59
2023-05-10T17:32:44.068Z,95151.75
2023-05-10T17:35:12.484Z,95149.59
2023-05-10T17:37:41.522Z,95147.16
2023-05-10T17:40:12.271Z,95150.84
2023-05-10T17:42:40.237Z,95150.56
2023-05-10T17:45:09.560Z,95158.47
2023-05-10T17:47:40.552Z,95158.47
2023-05-10T17:50:10.436Z,95155.78
2023-05-10T17:52:38.487Z,95162.59
2023-05-10T17:55:09.504Z,95162.59
2023-05-10T17:57:38.769Z,95160.75
2023-05-10T18:00:09.481Z,95158.41
2023-05-10T18:02:39.005Z,95164.19
2023-05-10T18:05:08.627Z,95156.78
2023-05-10T18:07:37.279Z,95164.44
2023-05-10T18:10:08.385Z,95162.84
2023-05-10T18:12:37.572Z,95157.81
2023-05-10T18:15:12.061Z,95157.50
2023-05-10T18:17:41.577Z,95162.75
2023-05-10T18:20:13.173Z,95157.41
2023-05-10T18:22:41.335Z,95158.66
2023-05-10T18:25:10.462Z,95161.50
2023-05-10T18:27:38.641Z,95160.41
2023-05-10T18:30:10.070Z,95159.63
2023-05-10T18:32:38.663Z,95157.78
2023-05-10T18:35:09.880Z,95160.16
2023-05-10T18:37:39.063Z,95154.59
2023-05-10T18:40:10.759Z,95160.34
2023-05-10T18:42:39.861Z,95159.00
2023-05-10T18:45:09.628Z,95160.06
2023-05-10T18:47:37.869Z,95164.75
2023-05-10T18:50:06.820Z,95163.97
2023-05-10T18:52:37.183Z,95161.03
2023-05-10T18:55:06.065Z,95159.66
2023-05-10T18:57:39.632Z,95160.72
2023-05-10T19:00:10.587Z,95159.13
2023-05-10T19:02:38.956Z,95164.66
2023-05-10T19:05:08.730Z,95166.16
2023-05-10T19:07:38.663Z,95159.31
2023-05-10T19:10:08.074Z,95164.00
2023-05-10T19:12:37.531Z,95161.28
2023-05-10T19:15:06.437Z,95173.34
2023-05-10T19:17:36.407Z,95176.22
2023-05-10T19:20:05.545Z,95174.41
2023-05-10T19:22:47.221Z,95172.31
2023-05-10T19:25:29.286Z,95178.63
2023-05-10T19:27:58.629Z,95172.47
2023-05-10T19:30:30.503Z,95180.09
2023-05-10T19:32:59.111Z,95184.31
2023-05-10T19:35:27.384Z,95181.44
2023-05-10T19:37:55.884Z,95172.47
2023-05-10T19:40:25.595Z,95179.84
2023-05-10T19:42:57.126Z,95178.00
2023-05-10T19:45:25.435Z,95185.09
2023-05-10T19:47:54.150Z,95184.06
2023-05-10T19:50:22.467Z,95184.31
2023-05-10T19:52:50.621Z,95179.59
2023-05-10T19:55:29.508Z,95181.22
2023-05-10T19:58:00.735Z,95176.66
2023-05-10T20:00:33.014Z,95185.03
2023-05-10T20:03:03.119Z,95178.41
2023-05-10T20:05:31.871Z,95176.03
2023-05-10T20:08:00.115Z,95182.00
2023-05-10T20:10:30.232Z,95174.81
2023-05-10T20:13:00.565Z,95171.91
2023-05-10T20:15:30.420Z,95177.47
2023-05-10T20:17:58.477Z,95174.53
2023-05-10T20:20:27.238Z,95176.63
2023-05-10T20:22:55.164Z,95186.91
2023-05-10T20:25:23.748Z,95181.38
2023-05-10T20:27:53.270Z,95188.75
2023-05-10T20:30:24.181Z,95194.16
2023-05-10T20:32:52.453Z,95189.88
2023-05-10T20:35:22.450Z,95181.72
2023-05-10T20:37:50.434Z,95185.94
2023-05-10T20:40:19.061Z,95187.22
2023-05-10T20:42:47.923Z,95184.22
2023-05-10T20:45:18.021Z,95178.69
2023-05-10T20:47:45.930Z,95181.56
2023-05-10T20:50:14.088Z,95183.31
2023-05-10T20:52:42.088Z,95193.06
2023-05-10T20:55:10.929Z,95186.75
2023-05-10T20:57:39.263Z,95185.16
2023-05-10T21:00:09.531Z,95187.78
2023-05-10T21:02:39.423Z,95177.03
2023-05-10T21:05:08.895Z,95169.13
2023-05-10T21:07:36.899Z,95174.13
2023-05-10T21:10:05.876Z,95169.66
2023-05-10T21:12:33.994Z,95163.59
2023-05-10T21:15:01.988Z,95166.50
2023-05-10T21:17:30.359Z,95165.59
2023-05-10T21:19:59.799Z,95163.47
2023-05-10T21:22:28.400Z,95156.63
2023-05-10T21:24:56.409Z,95156.03
2023-05-10T21:27:24.618Z,95157.31
2023-05-10T21:29:53.133Z,95162.59
2023-05-10T21:32:21.862Z,95158.13
2023-05-10T21:34:50.048Z,95159.63
2023-05-10T21:37:19.611Z,95155.09
2023-05-10T21:39:47.736Z,95156.13
2023-05-10T21:42:16.986Z,95158.66
2023-05-10T21:44:45.285Z,95154.44
2023-05-10T21:47:13.347Z,95157.00
2023-05-10T21:49:41.312Z,95154.59
2023-05-10T21:52:09.305Z,95147.16
2023-05-10T21:54:38.939Z,95149.25
2023-05-10T21:57:06.941Z,95150.28
2023-05-10T21:59:35.228Z,95152.91
2023-05-10T22:02:03.586Z,95151.78
2023-05-10T22:04:31.615Z,95153.06
2023-05-10T22:07:00.472Z,95150.59
2023-05-10T22:09:28.342Z,95146.91
2023-05-10T22:11:57.857Z,95152.41
2023-05-10T22:14:26.022Z,95152.06
2023-05-10T22:16:54.020Z,95148.63
2023-05-10T22:19:22.573Z,95150.16
2023-05-10T22:21:51.039Z,95155.63
2023-05-10T22:24:19.188Z,95161.38
2023-05-10T22:26:47.398Z,95156.81
2023-05-10T22:29:16.941Z,95156.50
2023-05-10T22:31:45.096Z,95155.13
2023-05-10T22:34:13.452Z,95155.84
2023-05-10T22:36:41.780Z,95160.06
2023-05-10T22:39:09.717Z,95151.72
2023-05-10T22:41:38.094Z,95156.66
2023-05-10T22:44:06.081Z,95155.88
2023-05-10T22:46:37.094Z,95152.44
2023-05-10T22:49:05.545Z,95145.00
2023-05-10T22:51:33.790Z,95155.31
2023-05-10T22:54:02.310Z,95148.78
2023-05-10T22:56:30.863Z,95152.22
2023-05-10T22:58:59.131Z,95146.94
2023-05-10T23:01:27.676Z,95146.16
2023-05-10T23:03:57.598Z,95152.09
2023-05-10T23:06:27.336Z,95156.81
2023-05-10T23:08:55.673Z,95157.59
2023-05-10T23:11:24.077Z,95141.84
2023-05-10T23:13:52.094Z,95146.84
2023-05-10T23:16:20.038Z,95147.09
2023-05-10T23:18:48.365Z,95153.94
2023-05-10T23:21:17.953Z,95148.00
2023-05-10T23:23:46.187Z,95149.56
2023-05-10T23:26:14.420Z,95146.72
2023-05-10T23:28:42.549Z,95153.56
2023-05-10T23:31:10.967Z,95151.72
2023-05-10T23:33:39.142Z,95155.97
2023-05-10T23:36:07.656Z,95157.56
2023-05-10T23:38:37.110Z,95159.16
2023-05-10T23:41:06.487Z,95158.69
2023-05-10T23:43:34.400Z,95159.81
2023-05-10T23:46:02.502Z,95152.16
2023-05-10T23:48:30.778Z,95153.75
2023-05-10T23:50:58.757Z,95148.50
2023-05-10T23:53:26.837Z,95152.97
2023-05-10T23:55:56.556Z,95151.38
2023-05-10T23:58:24.664Z,95145.06
